createdAt,value
2019-05-14T00:00:41.677Z,85.79
2019-05-14T00:03:14.599Z,85.61
2019-05-14T00:05:47.877Z,85.98
2019-05-14T00:08:19.345Z,86.42
2019-05-14T00:10:52.564Z,85.49
2019-05-14T00:13:32.073Z,86.60
2019-05-14T00:16:07.393Z,86.52
2019-05-14T00:18:41.976Z,86.00
2019-05-14T00:21:17.434Z,85.92
2019-05-14T00:23:51.241Z,86.25
2019-05-14T00:26:21.607Z,86.28
2019-05-14T00:28:53.145Z,87.17
2019-05-14T00:31:23.733Z,87.21
2019-05-14T00:33:54.134Z,87.23
2019-05-14T00:36:44.604Z,87.30
2019-05-14T00:39:21.521Z,87.44
2019-05-14T00:42:01.764Z,87.87
2019-05-14T00:44:35.917Z,86.52
2019-05-14T00:47:11.306Z,87.48
2019-05-14T00:49:47.159Z,87.86
2019-05-14T00:52:24.801Z,86.72
2019-05-14T00:54:55.760Z,86.40
2019-05-14T00:57:26.307Z,87.90
2019-05-14T01:00:01.284Z,87.60
2019-05-14T01:02:31.988Z,86.82
2019-05-14T01:05:07.588Z,86.96
2019-05-14T01:07:42.863Z,87.00
2019-05-14T01:10:13.793Z,87.36
2019-05-14T01:12:44.199Z,87.35
2019-05-14T01:15:16.235Z,87.53
2019-05-14T01:18:11.392Z,87.33
2019-05-14T01:20:46.780Z,88.60
2019-05-14T01:23:17.267Z,88.24
2019-05-14T01:25:52.498Z,87.05
2019-05-14T01:28:23.076Z,87.70
2019-05-14T01:30:55.146Z,87.87
2019-05-14T01:33:43.449Z,88.51
2019-05-14T01:36:13.853Z,88.21
2019-05-14T01:38:44.274Z,86.97
2019-05-14T01:41:16.089Z,86.77
2019-05-14T01:43:46.514Z,87.67
2019-05-14T01:46:17.237Z,87.86
2019-05-14T01:48:52.166Z,88.50
2019-05-14T01:51:24.779Z,88.61
2019-05-14T01:54:08.875Z,87.95
2019-05-14T01:56:39.305Z,88.78
2019-05-14T01:59:11.903Z,88.71
2019-05-14T02:01:42.009Z,88.50
2019-05-14T02:04:12.440Z,88.09
2019-05-14T02:06:59.111Z,89.30
2019-05-14T02:09:38.921Z,89.72
2019-05-14T02:12:11.449Z,90.42
2019-05-14T02:14:42.777Z,90.30
2019-05-14T02:17:16.610Z,90.07
2019-05-14T02:20:02.166Z,90.04
2019-05-14T02:22:32.092Z,90.30
2019-05-14T02:25:04.308Z,90.72
2019-05-14T02:27:37.884Z,91.12
2019-05-14T02:30:10.057Z,91.91
2019-05-14T02:32:41.010Z,92.32
2019-05-14T02:35:13.485Z,91.66
2019-05-14T02:37:43.964Z,91.32
2019-05-14T02:40:14.386Z,91.14
2019-05-14T02:42:44.833Z,91.20
2019-05-14T02:45:15.282Z,91.14
2019-05-14T02:47:50.620Z,90.52
2019-05-14T02:50:21.135Z,89.84
2019-05-14T02:52:55.160Z,91.74
2019-05-14T02:55:25.548Z,91.46
2019-05-14T02:57:59.772Z,90.41
2019-05-14T03:03:25.665Z,90.00
2019-05-14T03:05:56.103Z,90.77
2019-05-14T03:08:30.095Z,90.85
2019-05-14T03:11:00.344Z,90.71
2019-05-14T03:13:31.071Z,90.71
2019-05-14T03:16:29.992Z,89.58
2019-05-14T03:18:54.986Z,89.33
2019-05-14T03:21:25.381Z,88.57
2019-05-14T03:23:55.823Z,88.30
2019-05-14T03:26:28.685Z,88.24
2019-05-14T03:29:05.279Z,88.32
2019-05-14T03:31:35.797Z,88.49
2019-05-14T03:34:06.266Z,88.47
2019-05-14T03:36:42.233Z,89.10
2019-05-14T03:39:10.554Z,88.88
2019-05-14T03:41:40.993Z,89.47
2019-05-14T03:44:23.044Z,89.53
2019-05-14T03:46:58.459Z,89.99
2019-05-14T03:49:28.800Z,89.80
2019-05-14T03:52:00.830Z,88.85
2019-05-14T03:54:31.262Z,88.66
2019-05-14T03:57:03.022Z,89.04
2019-05-14T03:59:33.642Z,89.56
2019-05-14T04:02:04.118Z,89.89
2019-05-14T04:04:34.582Z,89.94
2019-05-14T04:07:05.104Z,90.41
2019-05-14T04:09:35.598Z,90.86
2019-05-14T04:12:09.703Z,90.61
2019-05-14T04:14:39.923Z,90.62
2019-05-14T04:17:15.200Z,90.91
2019-05-14T04:19:50.087Z,91.05
2019-05-14T04:22:22.913Z,91.19
2019-05-14T04:24:54.270Z,90.90
2019-05-14T04:27:25.560Z,91.22
2019-05-14T04:29:58.811Z,91.32
2019-05-14T04:32:32.633Z,91.68
2019-05-14T04:35:03.146Z,91.99
2019-05-14T04:37:33.533Z,91.86
2019-05-14T04:40:04.205Z,91.42
2019-05-14T04:42:34.943Z,91.76
2019-05-14T04:45:10.511Z,91.39
2019-05-14T04:47:42.079Z,91.94
2019-05-14T04:50:14.701Z,92.52
2019-05-14T04:52:45.264Z,93.11
2019-05-14T04:55:16.092Z,92.63
2019-05-14T04:57:50.394Z,92.80
2019-05-14T05:00:20.245Z,92.48
2019-05-14T05:02:53.484Z,91.44
2019-05-14T05:05:25.863Z,92.31
2019-05-14T05:07:59.612Z,91.91
2019-05-14T05:10:29.905Z,91.09
2019-05-14T05:13:00.530Z,91.01
2019-05-14T05:15:31.308Z,90.81
2019-05-14T05:18:22.966Z,90.60
2019-05-14T05:20:53.499Z,88.16
2019-05-14T05:23:23.905Z,86.69
2019-05-14T05:25:58.514Z,85.48
2019-05-14T05:28:29.393Z,85.10
2019-05-14T05:31:05.917Z,85.22
2019-05-14T05:33:38.355Z,83.68
2019-05-14T05:36:10.241Z,83.39
2019-05-14T05:38:43.235Z,82.95
2019-05-14T05:41:13.748Z,82.11
2019-05-14T05:43:44.228Z,82.05
2019-05-14T05:46:31.239Z,80.34
2019-05-14T05:49:01.860Z,78.85
2019-05-14T05:51:32.359Z,81.29
2019-05-14T05:54:02.756Z,79.17
2019-05-14T05:56:33.254Z,76.85
2019-05-14T05:59:10.585Z,76.87
2019-05-14T06:01:46.023Z,74.80
2019-05-14T06:04:11.113Z,76.49
2019-05-14T06:06:48.040Z,74.48
2019-05-14T06:09:18.231Z,74.36
2019-05-14T06:11:51.990Z,71.88
2019-05-14T06:14:22.499Z,72.25
2019-05-14T06:16:52.885Z,72.23
2019-05-14T06:19:29.424Z,72.29
2019-05-14T06:22:00.087Z,71.33
2019-05-14T06:24:30.544Z,69.96
2019-05-14T06:27:02.201Z,70.37
2019-05-14T06:29:34.867Z,70.74
2019-05-14T06:32:12.798Z,71.57
2019-05-14T06:34:43.181Z,71.54
2019-05-14T06:37:18.886Z,69.93
2019-05-14T06:39:49.079Z,70.95
2019-05-14T06:42:19.523Z,69.33
2019-05-14T06:44:49.947Z,67.11
2019-05-14T06:47:21.043Z,66.76
2019-05-14T06:49:52.437Z,67.55
2019-05-14T06:52:23.309Z,67.43
2019-05-14T06:54:59.880Z,65.97
2019-05-14T06:57:32.181Z,65.56
2019-05-14T07:00:08.343Z,67.77
2019-05-14T07:02:43.556Z,64.97
2019-05-14T07:05:11.147Z,62.93
2019-05-14T07:07:41.661Z,63.02
2019-05-14T07:10:12.065Z,63.98
2019-05-14T07:12:44.827Z,64.80
2019-05-14T07:15:18.349Z,64.33
2019-05-14T07:17:49.297Z,64.81
2019-05-14T07:20:20.371Z,64.18
2019-05-14T07:22:54.107Z,64.67
2019-05-14T07:25:24.624Z,64.14
2019-05-14T07:27:55.054Z,63.54
2019-05-14T07:30:33.451Z,60.99
2019-05-14T07:33:03.870Z,63.15
2019-05-14T07:35:34.279Z,59.94
2019-05-14T07:38:09.021Z,59.77
2019-05-14T07:40:39.308Z,61.78
2019-05-14T07:43:10.118Z,60.18
2019-05-14T07:45:40.572Z,58.66
2019-05-14T07:48:10.977Z,58.79
2019-05-14T07:50:41.408Z,59.88
2019-05-14T07:53:13.051Z,59.27
2019-05-14T07:55:44.090Z,59.58
2019-05-14T07:58:14.876Z,59.67
2019-05-14T08:00:49.155Z,58.23
2019-05-14T08:03:22.134Z,59.16
2019-05-14T08:05:52.691Z,58.94
2019-05-14T08:08:23.289Z,57.86
2019-05-14T08:11:00.295Z,54.49
2019-05-14T08:13:30.742Z,53.54
2019-05-14T08:16:01.793Z,54.12
2019-05-14T08:18:34.632Z,53.03
2019-05-14T08:21:08.590Z,55.03
2019-05-14T08:23:39.402Z,53.40
2019-05-14T08:26:09.928Z,53.28
2019-05-14T08:28:40.389Z,53.78
2019-05-14T08:31:19.893Z,55.11
2019-05-14T08:33:51.346Z,54.29
2019-05-14T08:36:21.727Z,53.72
2019-05-14T08:38:54.415Z,50.47
2019-05-14T08:41:29.235Z,49.26
2019-05-14T08:44:00.148Z,49.72
2019-05-14T08:46:30.821Z,50.55
2019-05-14T08:49:03.050Z,51.20
2019-05-14T08:51:33.839Z,50.43
2019-05-14T08:54:08.076Z,51.02
2019-05-14T08:56:39.002Z,53.23
2019-05-14T08:59:12.541Z,54.14
2019-05-14T09:01:57.182Z,52.61
2019-05-14T09:04:15.155Z,51.62
2019-05-14T09:06:45.837Z,52.88
2019-05-14T09:09:18.232Z,53.45
2019-05-14T09:11:51.999Z,53.70
2019-05-14T09:14:22.738Z,52.84
2019-05-14T09:16:53.744Z,50.62
2019-05-14T09:19:24.296Z,50.32
2019-05-14T09:21:58.879Z,51.57
2019-05-14T09:24:35.300Z,52.08
2019-05-14T09:27:08.255Z,50.41
2019-05-14T09:29:39.457Z,50.08
2019-05-14T09:32:11.570Z,52.58
2019-05-14T09:34:42.082Z,54.14
2019-05-14T09:37:14.538Z,53.07
2019-05-14T09:39:46.135Z,49.33
2019-05-14T09:42:19.917Z,50.27
2019-05-14T09:44:51.994Z,49.81
2019-05-14T09:47:28.089Z,51.06
2019-05-14T09:50:15.001Z,51.53
2019-05-14T09:52:39.176Z,53.09
2019-05-14T09:55:10.139Z,53.10
2019-05-14T09:57:40.670Z,52.37
2019-05-14T10:00:14.415Z,52.84
2019-05-14T10:02:43.321Z,54.27
2019-05-14T10:05:13.718Z,55.93
2019-05-14T10:07:44.620Z,55.89
2019-05-14T10:10:19.649Z,56.76
2019-05-14T10:12:57.038Z,57.28
2019-05-14T10:15:43.104Z,57.72
2019-05-14T10:18:13.879Z,58.25
2019-05-14T10:20:49.401Z,58.96
2019-05-14T10:23:19.779Z,55.83
2019-05-14T10:25:53.745Z,54.20
2019-05-14T10:28:24.606Z,53.96
2019-05-14T10:30:59.959Z,54.26
2019-05-14T10:36:23.292Z,53.33
2019-05-14T10:38:54.016Z,54.39
2019-05-14T10:41:24.759Z,55.50
2019-05-14T10:43:59.282Z,57.92
2019-05-14T10:46:32.501Z,56.24
2019-05-14T10:49:16.323Z,53.36
2019-05-14T10:51:38.943Z,53.88
2019-05-14T10:54:21.645Z,55.61
2019-05-14T10:56:42.415Z,56.56
2019-05-14T10:59:18.408Z,56.83
2019-05-14T11:01:49.841Z,55.78
2019-05-14T11:04:20.278Z,54.71
2019-05-14T11:06:58.102Z,54.86
2019-05-14T11:09:28.747Z,53.70
2019-05-14T11:12:00.085Z,54.18
2019-05-14T11:14:31.771Z,52.48
2019-05-14T11:17:11.411Z,53.38
2019-05-14T11:19:40.369Z,54.58
2019-05-14T11:22:11.139Z,56.42
2019-05-14T11:24:41.619Z,56.43
2019-05-14T11:27:12.303Z,56.82
2019-05-14T11:29:45.916Z,58.22
2019-05-14T11:32:18.468Z,55.57
2019-05-14T11:34:50.447Z,55.23
2019-05-14T11:37:21.174Z,54.96
2019-05-14T11:39:51.761Z,56.00
2019-05-14T11:42:23.802Z,55.03
2019-05-14T11:44:58.116Z,55.54
2019-05-14T11:47:38.473Z,54.72
2019-05-14T11:50:12.960Z,54.70
2019-05-14T11:52:44.930Z,54.66
2019-05-14T11:55:18.703Z,54.89
2019-05-14T11:57:49.096Z,52.96
2019-05-14T12:00:19.773Z,49.83
2019-05-14T12:02:53.194Z,49.19
2019-05-14T12:05:23.914Z,50.27
2019-05-14T12:07:54.452Z,47.52
2019-05-14T12:10:29.212Z,51.53
2019-05-14T12:13:02.712Z,49.36
2019-05-14T12:15:35.617Z,47.27
2019-05-14T12:18:10.529Z,48.75
2019-05-14T12:20:41.180Z,48.82
2019-05-14T12:23:13.134Z,49.67
2019-05-14T12:25:49.063Z,48.21
2019-05-14T12:28:20.090Z,49.54
2019-05-14T12:30:53.181Z,50.79
2019-05-14T12:33:23.811Z,51.06
2019-05-14T12:35:54.261Z,51.30
2019-05-14T12:38:29.650Z,51.67
2019-05-14T12:41:00.217Z,50.16
2019-05-14T12:43:42.014Z,49.50
2019-05-14T12:46:11.688Z,48.89
2019-05-14T12:48:43.581Z,48.67
2019-05-14T12:51:14.127Z,49.56
2019-05-14T12:53:48.835Z,50.37
2019-05-14T12:56:22.137Z,50.90
2019-05-14T12:58:59.328Z,53.30
2019-05-14T13:01:29.717Z,52.34
2019-05-14T13:04:01.793Z,53.61
2019-05-14T13:06:39.927Z,53.23
2019-05-14T13:09:09.635Z,53.45
2019-05-14T13:11:41.609Z,52.88
2019-05-14T13:14:13.715Z,53.41
2019-05-14T13:16:44.907Z,54.32
2019-05-14T13:19:19.149Z,56.06
2019-05-14T13:22:15.080Z,56.08
2019-05-14T13:24:49.323Z,55.26
2019-05-14T13:27:19.452Z,56.08
2019-05-14T13:29:52.839Z,59.63
2019-05-14T13:32:25.499Z,61.93
2019-05-14T13:35:00.354Z,64.18
2019-05-14T13:37:40.254Z,67.78
2019-05-14T13:40:13.682Z,65.90
2019-05-14T13:43:03.206Z,68.52
2019-05-14T13:45:39.158Z,69.51
2019-05-14T13:48:09.246Z,66.84
2019-05-14T13:50:40.597Z,68.82
2019-05-14T13:53:13.233Z,66.99
2019-05-14T13:55:55.748Z,68.25
2019-05-14T13:58:21.247Z,67.32
2019-05-14T14:00:59.137Z,64.81
2019-05-14T14:03:48.897Z,65.09
2019-05-14T14:06:10.881Z,64.37
2019-05-14T14:08:45.226Z,65.64
2019-05-14T14:11:16.232Z,65.27
2019-05-14T14:13:48.892Z,62.44
2019-05-14T14:16:20.395Z,62.66
2019-05-14T14:18:50.799Z,63.29
2019-05-14T14:21:24.197Z,73.48
2019-05-14T14:23:59.264Z,79.71
2019-05-14T14:26:30.271Z,84.82
2019-05-14T14:29:05.340Z,86.18
2019-05-14T14:31:45.057Z,86.90
2019-05-14T14:34:18.181Z,90.74
2019-05-14T14:36:55.056Z,91.10
2019-05-14T14:39:24.686Z,92.23
2019-05-14T14:41:55.281Z,93.02
2019-05-14T14:44:34.898Z,92.85
2019-05-14T14:47:05.266Z,94.61
2019-05-14T14:49:43.438Z,91.92
2019-05-14T14:52:19.701Z,94.51
2019-05-14T14:55:21.701Z,93.57
2019-05-14T14:58:11.482Z,94.36
2019-05-14T15:01:04.110Z,93.53
2019-05-14T15:03:54.107Z,95.12
2019-05-14T15:06:50.926Z,96.94
2019-05-14T15:09:18.686Z,93.76
2019-05-14T15:11:59.635Z,95.75
2019-05-14T15:14:42.116Z,93.05
2019-05-14T15:17:18.616Z,94.53
2019-05-14T15:20:05.259Z,93.77
2019-05-14T15:22:55.789Z,94.33
2019-05-14T15:25:47.025Z,93.30
2019-05-14T15:28:24.826Z,95.75
2019-05-14T15:31:23.647Z,92.80
2019-05-14T15:34:12.422Z,90.76
2019-05-14T15:37:12.147Z,84.63
2019-05-14T15:40:22.514Z,89.72
2019-05-14T15:43:11.586Z,86.68
2019-05-14T15:46:18.464Z,80.79
2019-05-14T15:49:01.533Z,83.14
2019-05-14T15:51:36.021Z,82.43
2019-05-14T15:54:35.040Z,84.78
2019-05-14T15:56:50.276Z,84.66
2019-05-14T15:59:23.287Z,79.84
2019-05-14T16:01:55.708Z,78.42
2019-05-14T16:04:28.827Z,78.78
2019-05-14T16:07:09.497Z,77.90
2019-05-14T16:09:55.711Z,74.12
2019-05-14T16:12:49.687Z,78.21
2019-05-14T16:15:23.211Z,74.72
2019-05-14T16:18:30.582Z,76.30
2019-05-14T16:21:04.062Z,74.64
2019-05-14T16:23:40.659Z,73.17
2019-05-14T16:26:14.594Z,74.72
2019-05-14T16:28:49.058Z,72.14
2019-05-14T16:31:28.068Z,72.04
2019-05-14T16:34:00.830Z,68.53
2019-05-14T16:37:11.027Z,68.00
2019-05-14T16:39:44.781Z,67.35
2019-05-14T16:42:29.391Z,66.30
2019-05-14T16:45:00.780Z,67.56
2019-05-14T16:47:44.771Z,69.25
2019-05-14T16:50:18.962Z,66.84
2019-05-14T16:53:00.708Z,69.09
2019-05-14T16:55:31.105Z,70.60
2019-05-14T16:58:08.843Z,71.45
2019-05-14T17:00:42.640Z,72.68
2019-05-14T17:03:14.373Z,72.88
2019-05-14T17:05:49.971Z,73.81
2019-05-14T17:08:20.838Z,73.82
2019-05-14T17:10:51.666Z,74.34
2019-05-14T17:13:22.167Z,74.52
2019-05-14T17:15:55.329Z,73.56
2019-05-14T17:18:31.941Z,74.33
2019-05-14T17:21:05.079Z,74.51
2019-05-14T17:23:39.242Z,76.06
2019-05-14T17:26:12.929Z,76.72
2019-05-14T17:28:43.949Z,75.84
2019-05-14T17:31:30.924Z,76.15
2019-05-14T17:34:03.298Z,78.34
2019-05-14T17:36:40.715Z,77.99
2019-05-14T17:39:11.764Z,75.99
2019-05-14T17:41:42.695Z,76.52
2019-05-14T17:44:17.637Z,77.41
2019-05-14T17:46:53.314Z,78.83
2019-05-14T17:49:25.427Z,79.24
2019-05-14T17:51:58.185Z,78.13
2019-05-14T17:54:33.080Z,77.87
2019-05-14T17:57:04.013Z,78.58
2019-05-14T17:59:38.792Z,77.84
2019-05-14T18:02:10.830Z,77.77
2019-05-14T18:04:45.595Z,78.22
2019-05-14T18:07:28.559Z,78.37
2019-05-14T18:10:08.860Z,78.26
2019-05-14T18:12:40.171Z,79.46
2019-05-14T18:15:16.245Z,82.06
2019-05-14T18:17:54.375Z,80.87
2019-05-14T18:20:28.645Z,79.33
2019-05-14T18:23:19.254Z,78.36
2019-05-14T18:26:04.004Z,77.78
2019-05-14T18:28:22.395Z,78.77
2019-05-14T18:30:53.140Z,79.58
2019-05-14T18:33:30.779Z,79.45
2019-05-14T18:36:03.495Z,78.03
2019-05-14T18:38:39.200Z,79.07
2019-05-14T18:41:10.104Z,77.60
2019-05-14T18:43:45.875Z,79.41
2019-05-14T18:46:19.255Z,80.21
2019-05-14T18:48:51.582Z,77.55
2019-05-14T18:51:24.895Z,80.42
2019-05-14T18:54:04.174Z,80.57
2019-05-14T18:56:38.411Z,81.96
2019-05-14T18:59:22.371Z,82.43
2019-05-14T19:01:54.024Z,82.17
2019-05-14T19:04:27.949Z,82.61
2019-05-14T19:06:59.109Z,83.09
2019-05-14T19:09:33.470Z,83.64
2019-05-14T19:12:04.449Z,83.17
2019-05-14T19:14:39.052Z,82.79
2019-05-14T19:17:11.158Z,83.68
2019-05-14T19:19:48.608Z,84.11
2019-05-14T19:22:22.094Z,84.67
2019-05-14T19:24:58.929Z,83.89
2019-05-14T19:27:30.968Z,84.00
2019-05-14T19:30:04.136Z,83.73
2019-05-14T19:32:39.225Z,82.70
2019-05-14T19:35:14.775Z,81.53
2019-05-14T19:37:48.807Z,81.95
2019-05-14T19:40:20.224Z,84.06
2019-05-14T19:42:53.462Z,83.69
2019-05-14T19:45:25.308Z,82.62
2019-05-14T19:47:58.557Z,83.11
2019-05-14T19:50:49.104Z,84.22
2019-05-14T19:53:19.772Z,84.09
2019-05-14T19:55:54.572Z,84.90
2019-05-14T19:58:25.055Z,84.76
2019-05-14T20:00:57.576Z,84.77
2019-05-14T20:03:35.095Z,84.05
2019-05-14T20:06:11.092Z,83.94
2019-05-14T20:08:42.026Z,82.18
2019-05-14T20:11:19.319Z,83.97
2019-05-14T20:13:54.989Z,82.89
2019-05-14T20:16:33.731Z,82.36
2019-05-14T20:19:08.806Z,79.52
2019-05-14T20:21:44.221Z,80.87
2019-05-14T20:24:15.105Z,78.91
2019-05-14T20:26:48.629Z,78.75
2019-05-14T20:29:21.219Z,76.87
2019-05-14T20:32:08.694Z,79.18
2019-05-14T20:34:42.106Z,76.39
2019-05-14T20:37:13.080Z,78.58
2019-05-14T20:39:49.087Z,79.11
2019-05-14T20:42:21.243Z,80.27
2019-05-14T20:45:22.548Z,81.10
2019-05-14T20:47:53.135Z,81.69
2019-05-14T20:50:28.763Z,81.63
2019-05-14T20:53:02.545Z,82.95
2019-05-14T20:55:40.269Z,83.62
2019-05-14T20:58:13.795Z,84.31
2019-05-14T21:01:00.343Z,84.30
2019-05-14T21:03:39.899Z,83.60
2019-05-14T21:06:12.462Z,83.50
2019-05-14T21:08:48.713Z,82.86
2019-05-14T21:11:19.239Z,84.01
2019-05-14T21:13:58.457Z,85.29
2019-05-14T21:16:29.306Z,85.73
2019-05-14T21:18:59.945Z,86.04
2019-05-14T21:21:30.526Z,86.73
2019-05-14T21:24:05.616Z,86.19
2019-05-14T21:26:36.099Z,86.27
2019-05-14T21:29:15.271Z,86.89
2019-05-14T21:31:45.889Z,87.10
2019-05-14T21:34:16.896Z,87.85
2019-05-14T21:36:50.371Z,87.36
2019-05-14T21:39:29.083Z,87.94
2019-05-14T21:42:02.969Z,87.76
2019-05-14T21:44:35.098Z,88.69
2019-05-14T21:47:09.630Z,88.37
2019-05-14T21:49:43.236Z,88.92
2019-05-14T21:52:18.002Z,89.23
2019-05-14T21:55:00.418Z,89.23
2019-05-14T21:57:32.889Z,89.29
2019-05-14T22:00:04.532Z,89.00
2019-05-14T22:02:38.280Z,89.22
2019-05-14T22:05:14.138Z,88.48
2019-05-14T22:07:44.316Z,88.96
2019-05-14T22:10:21.692Z,89.42
2019-05-14T22:12:52.067Z,88.56
2019-05-14T22:15:24.822Z,89.22
2019-05-14T22:17:59.004Z,89.22
2019-05-14T22:20:30.560Z,88.83
2019-05-14T22:23:01.545Z,88.43
2019-05-14T22:25:32.087Z,89.27
2019-05-14T22:28:15.250Z,89.39
2019-05-14T22:30:45.718Z,89.80
2019-05-14T22:33:16.190Z,89.65
2019-05-14T22:35:48.663Z,88.86
2019-05-14T22:38:20.359Z,89.26
2019-05-14T22:40:50.918Z,89.98
2019-05-14T22:43:21.492Z,89.92
2019-05-14T22:45:52.320Z,90.40
2019-05-14T22:48:22.718Z,90.50
2019-05-14T22:50:53.173Z,91.18
2019-05-14T22:53:25.118Z,91.12
2019-05-14T22:55:55.595Z,90.90
2019-05-14T22:58:40.273Z,90.56
2019-05-14T23:01:21.121Z,90.60
2019-05-14T23:03:56.257Z,90.50
2019-05-14T23:06:40.328Z,90.54
2019-05-14T23:09:18.488Z,90.69
2019-05-14T23:11:48.212Z,90.03
2019-05-14T23:14:18.689Z,90.20
2019-05-14T23:16:49.321Z,90.52
2019-05-14T23:19:22.135Z,90.51
2019-05-14T23:21:52.829Z,90.82
2019-05-14T23:24:23.294Z,90.79
2019-05-14T23:26:53.763Z,90.46
2019-05-14T23:29:25.314Z,90.75
2019-05-14T23:31:55.711Z,91.48
2019-05-14T23:34:30.219Z,92.26
2019-05-14T23:37:00.788Z,91.95
2019-05-14T23:39:31.229Z,92.44
2019-05-14T23:42:03.276Z,92.16
2019-05-14T23:44:33.876Z,91.81
2019-05-14T23:47:04.573Z,92.05
2019-05-14T23:49:35.000Z,92.41
2019-05-14T23:52:05.377Z,91.92
2019-05-14T23:54:35.798Z,92.58
2019-05-14T23:57:08.734Z,92.64
2019-05-14T23:59:39.625Z,92.68
